createdAt,value
2019-02-27T00:01:35.385Z,47.37
2019-02-27T00:04:03.494Z,47.87
2019-02-27T00:06:31.625Z,49.90
2019-02-27T00:09:00.567Z,52.20
2019-02-27T00:11:29.121Z,50.70
2019-02-27T00:13:57.993Z,49.03
2019-02-27T00:16:26.635Z,52.47
2019-02-27T00:18:58.528Z,51.47
2019-02-27T00:21:24.450Z,53.30
2019-02-27T00:23:56.673Z,47.03
2019-02-27T00:26:24.428Z,47.57
2019-02-27T00:28:56.111Z,46.93
2019-02-27T00:31:26.708Z,50.80
2019-02-27T00:33:59.511Z,47.23
2019-02-27T00:36:24.148Z,52.73
2019-02-27T00:38:52.308Z,44.70
2019-02-27T00:41:20.404Z,49.20
2019-02-27T00:43:48.447Z,44.97
2019-02-27T00:46:16.555Z,46.13
2019-02-27T00:48:51.384Z,46.30
2019-02-27T00:51:16.879Z,48.83
2019-02-27T00:53:44.905Z,44.30
2019-02-27T00:56:13.008Z,47.53
2019-02-27T00:58:41.056Z,46.37
2019-02-27T01:01:10.080Z,43.13
2019-02-27T01:03:38.829Z,45.93
2019-02-27T01:06:06.883Z,47.07
2019-02-27T01:08:34.846Z,42.47
2019-02-27T01:11:02.945Z,45.87
2019-02-27T01:13:31.284Z,44.67
2019-02-27T01:15:59.929Z,43.20
2019-02-27T01:18:30.674Z,42.23
2019-02-27T01:20:57.764Z,47.70
2019-02-27T01:26:47.807Z,42.70
2019-02-27T01:29:18.100Z,48.17
2019-02-27T01:31:45.545Z,46.47
2019-02-27T01:34:13.506Z,44.10
2019-02-27T01:36:41.568Z,44.50
2019-02-27T01:39:11.386Z,43.13
2019-02-27T01:41:39.320Z,45.50
2019-02-27T01:44:07.368Z,42.27
2019-02-27T01:46:35.412Z,45.83
2019-02-27T01:49:03.447Z,46.13
2019-02-27T01:51:31.515Z,47.40
2019-02-27T01:53:59.518Z,44.67
2019-02-27T01:56:29.163Z,44.00
2019-02-27T01:58:57.288Z,42.60
2019-02-27T02:01:29.825Z,42.57
2019-02-27T02:03:55.040Z,45.33
2019-02-27T02:06:23.061Z,45.20
2019-02-27T02:09:08.565Z,44.27
2019-02-27T02:11:37.835Z,43.30
2019-02-27T02:14:40.265Z,45.47
2019-02-27T02:17:15.918Z,45.17
2019-02-27T02:20:01.722Z,52.03
2019-02-27T02:22:35.311Z,51.07
2019-02-27T02:25:16.459Z,48.50
2019-02-27T02:27:52.963Z,44.43
2019-02-27T02:30:30.918Z,47.67
2019-02-27T02:33:30.241Z,46.67
2019-02-27T02:36:10.014Z,47.60
2019-02-27T02:38:50.881Z,47.33
2019-02-27T02:41:35.977Z,53.83
2019-02-27T02:44:22.064Z,55.57
2019-02-27T02:46:59.137Z,53.97
2019-02-27T02:49:42.650Z,50.20
2019-02-27T02:52:26.278Z,53.23
2019-02-27T02:55:13.624Z,50.10
2019-02-27T02:57:46.493Z,49.43
2019-02-27T03:00:28.804Z,48.97
2019-02-27T03:03:09.053Z,47.67
2019-02-27T03:05:40.243Z,48.20
2019-02-27T03:08:23.660Z,48.33
2019-02-27T03:11:03.498Z,46.80
2019-02-27T03:13:56.851Z,47.57
2019-02-27T03:16:43.985Z,45.53
2019-02-27T03:19:31.106Z,47.60
2019-02-27T03:22:22.734Z,46.40
2019-02-27T03:25:26.289Z,47.67
2019-02-27T03:28:12.145Z,48.27
2019-02-27T03:31:00.141Z,46.00
2019-02-27T03:33:45.187Z,48.30
2019-02-27T03:39:53.224Z,46.13
2019-02-27T03:43:15.466Z,46.43
2019-02-27T03:46:03.004Z,46.63
2019-02-27T03:48:35.710Z,46.53
2019-02-27T03:51:10.671Z,47.43
2019-02-27T03:53:43.238Z,40.73
2019-02-27T03:56:32.596Z,43.43
2019-02-27T03:59:19.711Z,45.03
2019-02-27T04:02:05.842Z,43.10
2019-02-27T04:04:43.518Z,42.30
2019-02-27T04:07:18.275Z,46.57
2019-02-27T04:09:46.272Z,43.10
2019-02-27T04:12:16.605Z,41.90
2019-02-27T04:14:44.034Z,42.03
2019-02-27T04:17:12.077Z,43.83
2019-02-27T04:19:42.588Z,47.07
2019-02-27T04:22:10.644Z,42.50
2019-02-27T04:24:38.668Z,42.17
2019-02-27T04:27:06.700Z,45.53
2019-02-27T04:29:34.729Z,45.50
2019-02-27T04:32:02.758Z,41.87
2019-02-27T04:34:33.031Z,39.27
2019-02-27T04:37:00.487Z,41.77
2019-02-27T04:39:28.907Z,43.87
2019-02-27T04:41:56.933Z,42.83
2019-02-27T04:44:25.003Z,41.37
2019-02-27T04:46:55.107Z,41.93
2019-02-27T04:49:22.789Z,43.30
2019-02-27T04:51:51.153Z,38.23
2019-02-27T04:54:19.276Z,40.23
2019-02-27T04:56:47.280Z,41.40
2019-02-27T04:59:18.220Z,44.53
2019-02-27T05:01:45.043Z,37.73
2019-02-27T05:04:13.098Z,42.00
2019-02-27T05:06:41.169Z,45.77
2019-02-27T05:09:09.687Z,42.03
2019-02-27T05:11:37.733Z,45.63
2019-02-27T05:14:06.866Z,40.60
2019-02-27T05:16:34.961Z,38.80
2019-02-27T05:19:04.062Z,40.30
2019-02-27T05:21:32.955Z,37.90
2019-02-27T05:24:01.598Z,38.50
2019-02-27T05:26:29.915Z,42.00
2019-02-27T05:28:58.062Z,43.47
2019-02-27T05:31:26.260Z,44.47
2019-02-27T05:33:54.500Z,38.13
2019-02-27T05:36:22.574Z,45.77
2019-02-27T05:38:50.642Z,40.70
2019-02-27T05:41:18.672Z,37.20
2019-02-27T05:43:48.473Z,44.57
2019-02-27T05:46:16.464Z,42.00
2019-02-27T05:48:44.492Z,38.80
2019-02-27T05:51:12.547Z,40.30
2019-02-27T05:53:40.607Z,38.20
2019-02-27T05:56:08.582Z,39.73
2019-02-27T05:58:36.630Z,40.73
2019-02-27T06:01:04.948Z,40.10
2019-02-27T06:03:33.759Z,40.80
2019-02-27T06:06:01.832Z,41.87
2019-02-27T06:08:29.868Z,42.37
2019-02-27T06:10:57.905Z,41.83
2019-02-27T06:13:25.995Z,43.40
2019-02-27T06:15:54.030Z,41.80
2019-02-27T06:18:23.356Z,37.10
2019-02-27T06:20:51.734Z,38.73
2019-02-27T06:23:20.196Z,39.90
2019-02-27T06:25:48.257Z,38.00
2019-02-27T06:28:18.480Z,40.07
2019-02-27T06:30:46.124Z,39.47
2019-02-27T06:33:14.183Z,38.20
2019-02-27T06:35:42.246Z,38.17
2019-02-27T06:38:14.942Z,39.93
2019-02-27T06:40:43.002Z,39.70
2019-02-27T06:43:11.112Z,45.30
2019-02-27T06:45:39.176Z,37.33
2019-02-27T06:48:10.256Z,42.77
2019-02-27T06:50:36.972Z,40.73
2019-02-27T06:53:29.541Z,38.60
2019-02-27T06:55:57.570Z,39.70
2019-02-27T06:58:28.692Z,38.07
2019-02-27T07:00:58.733Z,40.17
2019-02-27T07:03:29.217Z,40.80
2019-02-27T07:05:56.160Z,41.33
2019-02-27T07:08:24.234Z,41.37
2019-02-27T07:10:52.307Z,42.40
2019-02-27T07:13:21.670Z,42.03
2019-02-27T07:15:49.918Z,40.77
2019-02-27T07:18:17.976Z,40.17
2019-02-27T07:20:46.095Z,42.23
2019-02-27T07:23:14.144Z,41.57
2019-02-27T07:25:42.843Z,43.90
2019-02-27T07:28:10.934Z,40.97
2019-02-27T07:30:39.743Z,43.13
2019-02-27T07:33:08.721Z,39.53
2019-02-27T07:35:36.756Z,44.27
2019-02-27T07:38:04.818Z,43.50
2019-02-27T07:40:32.938Z,46.80
2019-02-27T07:43:03.349Z,45.33
2019-02-27T07:45:30.674Z,50.00
2019-02-27T07:47:58.705Z,47.40
2019-02-27T07:50:26.797Z,41.03
2019-02-27T07:52:54.995Z,49.23
2019-02-27T07:55:25.301Z,44.93
2019-02-27T07:57:52.810Z,48.07
2019-02-27T08:00:20.900Z,45.67
2019-02-27T08:02:48.909Z,48.63
2019-02-27T08:05:20.073Z,44.90
2019-02-27T08:07:49.072Z,45.10
2019-02-27T08:10:18.348Z,46.07
2019-02-27T08:12:46.423Z,48.50
2019-02-27T08:15:15.216Z,40.00
2019-02-27T08:17:43.400Z,44.33
2019-02-27T08:20:11.433Z,48.33
2019-02-27T08:25:49.189Z,50.20
2019-02-27T08:28:17.228Z,52.60
2019-02-27T08:30:45.297Z,53.67
2019-02-27T08:33:15.201Z,53.40
2019-02-27T08:35:43.062Z,49.77
2019-02-27T08:38:11.128Z,54.63
2019-02-27T08:40:39.187Z,51.57
2019-02-27T08:43:10.307Z,52.07
2019-02-27T08:45:36.949Z,56.17
2019-02-27T08:48:05.012Z,57.40
2019-02-27T08:50:33.060Z,49.73
2019-02-27T08:53:01.156Z,53.13
2019-02-27T08:55:29.204Z,44.77
2019-02-27T08:57:57.290Z,56.43
2019-02-27T09:00:25.518Z,47.53
2019-02-27T09:02:55.549Z,59.53
2019-02-27T09:05:23.499Z,52.50
2019-02-27T09:07:51.532Z,47.87
2019-02-27T09:10:19.628Z,43.97
2019-02-27T09:12:48.907Z,48.87
2019-02-27T09:15:17.284Z,51.70
2019-02-27T09:17:45.341Z,51.07
2019-02-27T09:20:19.246Z,47.33
2019-02-27T09:22:45.189Z,48.80
2019-02-27T09:25:13.537Z,45.97
2019-02-27T09:27:41.595Z,42.03
2019-02-27T09:30:10.802Z,45.43
2019-02-27T09:32:38.889Z,44.83
2019-02-27T09:35:07.433Z,40.90
2019-02-27T09:37:35.479Z,36.83
2019-02-27T09:40:05.691Z,39.83
2019-02-27T09:42:33.400Z,33.57
2019-02-27T09:45:01.521Z,35.37
2019-02-27T09:47:29.522Z,39.00
2019-02-27T09:49:57.614Z,42.23
2019-02-27T09:52:27.806Z,39.73
2019-02-27T09:54:55.406Z,38.00
2019-02-27T09:57:23.960Z,35.87
2019-02-27T09:59:54.253Z,37.87
2019-02-27T10:02:22.330Z,40.47
2019-02-27T10:04:50.362Z,38.07
2019-02-27T10:07:18.444Z,35.43
2019-02-27T10:09:46.481Z,37.80
2019-02-27T10:12:14.566Z,38.60
2019-02-27T10:14:42.603Z,38.17
2019-02-27T10:17:10.690Z,37.73
2019-02-27T10:19:38.785Z,35.70
2019-02-27T10:22:06.838Z,39.30
2019-02-27T10:24:36.841Z,34.00
2019-02-27T10:27:04.620Z,36.27
2019-02-27T10:29:32.677Z,32.73
2019-02-27T10:32:01.354Z,36.90
2019-02-27T10:34:29.489Z,37.07
2019-02-27T10:36:57.645Z,36.87
2019-02-27T10:39:25.648Z,42.03
2019-02-27T10:41:53.740Z,30.80
2019-02-27T10:44:21.996Z,32.13
2019-02-27T10:46:51.994Z,33.47
2019-02-27T10:49:21.821Z,36.93
2019-02-27T10:51:49.585Z,29.87
2019-02-27T10:54:17.675Z,35.53
2019-02-27T10:56:45.709Z,31.00
2019-02-27T10:59:13.750Z,28.17
2019-02-27T11:01:41.864Z,39.63
2019-02-27T11:04:10.030Z,32.77
2019-02-27T11:06:38.400Z,35.37
2019-02-27T11:09:15.283Z,34.47
2019-02-27T11:11:43.408Z,30.10
2019-02-27T11:14:11.519Z,33.37
2019-02-27T11:16:39.572Z,38.63
2019-02-27T11:19:07.652Z,36.43
2019-02-27T11:21:35.726Z,30.37
2019-02-27T11:24:03.772Z,31.73
2019-02-27T11:26:33.344Z,30.83
2019-02-27T11:29:01.558Z,29.60
2019-02-27T11:31:29.622Z,30.80
2019-02-27T11:33:57.726Z,30.33
2019-02-27T11:36:25.847Z,35.27
2019-02-27T11:38:58.817Z,29.87
2019-02-27T11:41:23.699Z,27.00
2019-02-27T11:43:52.774Z,30.73
2019-02-27T11:46:20.994Z,27.80
2019-02-27T11:48:49.150Z,30.70
2019-02-27T11:51:17.550Z,29.57
2019-02-27T11:53:46.986Z,29.63
2019-02-27T11:56:15.103Z,29.37
2019-02-27T11:58:43.164Z,41.43
2019-02-27T12:01:12.199Z,29.07
2019-02-27T12:03:40.442Z,31.10
2019-02-27T12:06:08.527Z,29.93
2019-02-27T12:08:36.705Z,28.10
2019-02-27T12:11:05.129Z,27.53
2019-02-27T12:13:34.853Z,26.50
2019-02-27T12:16:04.426Z,29.33
2019-02-27T12:18:34.519Z,29.67
2019-02-27T12:21:02.248Z,28.00
2019-02-27T12:23:30.333Z,27.03
2019-02-27T12:25:59.940Z,23.30
2019-02-27T12:28:28.152Z,24.97
2019-02-27T12:30:56.221Z,24.10
2019-02-27T12:33:24.293Z,21.90
2019-02-27T12:35:52.395Z,25.23
2019-02-27T12:38:20.464Z,25.20
2019-02-27T12:40:48.571Z,28.70
2019-02-27T12:43:18.272Z,24.97
2019-02-27T12:45:46.436Z,23.13
2019-02-27T12:48:14.450Z,25.10
2019-02-27T12:50:42.488Z,26.87
2019-02-27T12:53:10.736Z,24.57
2019-02-27T12:55:38.787Z,24.57
2019-02-27T12:58:06.789Z,23.40
2019-02-27T13:00:34.985Z,24.73
2019-02-27T13:03:03.067Z,25.23
2019-02-27T13:05:31.290Z,23.63
2019-02-27T13:07:59.338Z,22.03
2019-02-27T13:10:30.411Z,25.13
2019-02-27T13:12:57.154Z,24.50
2019-02-27T13:15:25.382Z,21.50
2019-02-27T13:17:57.608Z,19.67
2019-02-27T13:20:24.048Z,22.00
2019-02-27T13:22:52.096Z,20.87
2019-02-27T13:25:21.401Z,20.90
2019-02-27T13:27:49.875Z,21.93
2019-02-27T13:30:18.406Z,20.07
2019-02-27T13:32:46.450Z,19.80
2019-02-27T13:35:14.670Z,20.97
2019-02-27T13:37:44.686Z,19.93
2019-02-27T13:40:13.683Z,22.77
2019-02-27T13:42:41.777Z,19.13
2019-02-27T13:45:13.407Z,17.43
2019-02-27T13:47:40.610Z,19.80
2019-02-27T13:50:08.712Z,18.83
2019-02-27T13:52:36.767Z,18.20
2019-02-27T13:55:05.007Z,18.83
2019-02-27T13:57:33.086Z,18.53
2019-02-27T14:00:01.158Z,17.53
2019-02-27T14:02:38.402Z,18.77
2019-02-27T14:05:03.353Z,18.43
2019-02-27T14:07:31.582Z,19.80
2019-02-27T14:09:59.739Z,17.07
2019-02-27T14:12:29.965Z,17.27
2019-02-27T14:14:57.834Z,20.27
2019-02-27T14:17:50.000Z,18.27
2019-02-27T14:20:18.575Z,18.40
2019-02-27T14:22:46.681Z,19.13
2019-02-27T14:25:15.969Z,20.47
2019-02-27T14:27:47.468Z,19.50
2019-02-27T14:30:16.653Z,18.97
2019-02-27T14:32:45.058Z,18.30
2019-02-27T14:35:14.630Z,20.73
2019-02-27T14:37:42.721Z,18.53
2019-02-27T14:40:12.147Z,19.13
2019-02-27T14:42:40.162Z,22.07
2019-02-27T14:45:10.102Z,20.00
2019-02-27T14:47:38.154Z,19.07
2019-02-27T14:50:06.394Z,18.43
2019-02-27T14:52:34.456Z,19.63
2019-02-27T14:55:03.536Z,18.90
2019-02-27T14:57:32.316Z,20.90
2019-02-27T15:00:02.449Z,22.77
2019-02-27T15:02:30.211Z,20.07
2019-02-27T15:04:58.300Z,19.67
2019-02-27T15:07:26.319Z,18.77
2019-02-27T15:09:56.956Z,19.37
2019-02-27T15:12:24.686Z,18.77
2019-02-27T15:14:52.670Z,19.00
2019-02-27T15:17:20.953Z,19.87
2019-02-27T15:23:10.811Z,22.47
2019-02-27T15:25:42.121Z,24.07
2019-02-27T15:28:08.818Z,21.73
2019-02-27T15:30:36.849Z,20.60
2019-02-27T15:33:05.473Z,20.47
2019-02-27T15:35:33.686Z,22.03
2019-02-27T15:38:01.868Z,22.03
2019-02-27T15:40:30.283Z,22.70
2019-02-27T15:42:58.676Z,21.60
2019-02-27T15:45:26.666Z,19.67
2019-02-27T15:51:04.487Z,20.03
2019-02-27T15:56:45.262Z,18.40
2019-02-27T15:59:12.775Z,20.40
2019-02-27T16:01:40.860Z,22.67
2019-02-27T16:04:09.059Z,17.67
2019-02-27T16:06:39.638Z,18.03
2019-02-27T16:09:06.966Z,19.93
2019-02-27T16:11:35.170Z,21.63
2019-02-27T16:14:03.270Z,17.73
2019-02-27T16:16:31.927Z,20.77
2019-02-27T16:18:59.966Z,27.83
2019-02-27T16:21:28.062Z,24.67
2019-02-27T16:23:56.239Z,22.53
2019-02-27T16:26:26.958Z,20.33
2019-02-27T16:28:54.538Z,20.70
2019-02-27T16:31:23.243Z,21.47
2019-02-27T16:33:51.381Z,25.30
2019-02-27T16:36:19.568Z,18.53
2019-02-27T16:41:57.358Z,20.57
2019-02-27T16:44:25.836Z,20.80
2019-02-27T16:46:53.964Z,18.73
2019-02-27T16:49:22.231Z,20.73
2019-02-27T16:51:50.448Z,18.67
2019-02-27T16:54:19.285Z,20.53
2019-02-27T16:56:50.011Z,24.20
2019-02-27T16:59:17.762Z,20.07
2019-02-27T17:01:46.363Z,27.77
2019-02-27T17:07:26.072Z,21.43
2019-02-27T17:09:53.844Z,22.07
2019-02-27T17:12:22.027Z,23.50
2019-02-27T17:14:50.180Z,26.33
2019-02-27T17:20:27.737Z,22.57
2019-02-27T17:22:55.915Z,19.40
2019-02-27T17:25:28.690Z,24.03
2019-02-27T17:27:53.849Z,24.17
2019-02-27T17:30:25.011Z,23.77
2019-02-27T17:32:53.607Z,23.13
2019-02-27T17:35:23.621Z,20.67
2019-02-27T17:37:51.520Z,23.20
2019-02-27T17:40:19.608Z,22.33
2019-02-27T17:42:53.112Z,20.30
2019-02-27T17:45:18.015Z,20.67
2019-02-27T17:47:46.432Z,23.37
2019-02-27T17:50:14.791Z,23.13
2019-02-27T17:52:43.093Z,21.07
2019-02-27T17:55:11.215Z,23.43
2019-02-27T17:57:39.368Z,23.33
2019-02-27T18:00:09.703Z,26.83
2019-02-27T18:02:38.215Z,29.00
2019-02-27T18:05:06.367Z,30.37
2019-02-27T18:07:34.636Z,24.87
2019-02-27T18:10:02.849Z,20.50
2019-02-27T18:12:30.886Z,23.60
2019-02-27T18:14:59.503Z,24.97
2019-02-27T18:17:29.157Z,20.00
2019-02-27T18:19:57.377Z,30.27
2019-02-27T18:22:25.523Z,20.23
2019-02-27T18:24:55.053Z,21.13
2019-02-27T18:27:25.451Z,23.90
2019-02-27T18:29:53.025Z,20.17
2019-02-27T18:32:21.125Z,20.23
2019-02-27T18:34:49.226Z,18.60
2019-02-27T18:37:19.000Z,19.90
2019-02-27T18:39:47.651Z,21.60
2019-02-27T18:42:17.206Z,21.20
2019-02-27T18:44:48.513Z,21.07
2019-02-27T18:47:17.127Z,23.63
2019-02-27T18:49:45.307Z,21.43
2019-02-27T18:52:21.163Z,20.70
2019-02-27T18:54:43.645Z,19.73
2019-02-27T18:57:12.862Z,19.57
2019-02-27T18:59:41.893Z,22.87
2019-02-27T19:02:10.261Z,25.43
2019-02-27T19:04:38.448Z,21.50
2019-02-27T19:07:07.356Z,23.10
2019-02-27T19:09:36.292Z,20.93
2019-02-27T19:12:05.311Z,23.03
2019-02-27T19:14:36.682Z,25.13
2019-02-27T19:17:04.293Z,24.17
2019-02-27T19:19:33.089Z,20.80
2019-02-27T19:22:04.379Z,24.93
2019-02-27T19:24:32.509Z,21.10
2019-02-27T19:27:00.991Z,23.80
2019-02-27T19:29:31.852Z,25.47
2019-02-27T19:31:59.213Z,22.63
2019-02-27T19:34:28.419Z,25.60
2019-02-27T19:36:56.767Z,21.13
2019-02-27T19:39:25.086Z,19.77
2019-02-27T19:41:53.338Z,23.27
2019-02-27T19:44:21.792Z,23.73
2019-02-27T19:46:50.098Z,22.27
2019-02-27T19:49:18.226Z,23.07
2019-02-27T19:51:46.510Z,21.97
2019-02-27T19:54:16.392Z,24.77
2019-02-27T19:56:44.629Z,26.40
2019-02-27T19:59:12.806Z,24.53
2019-02-27T20:01:47.009Z,23.50
2019-02-27T20:04:12.749Z,27.23
2019-02-27T20:06:40.580Z,27.03
2019-02-27T20:09:09.005Z,25.90
2019-02-27T20:11:39.987Z,23.17
2019-02-27T20:14:07.919Z,24.87
2019-02-27T20:16:36.067Z,22.80
2019-02-27T20:19:04.144Z,23.20
2019-02-27T20:21:32.361Z,25.00
2019-02-27T20:24:01.628Z,25.53
2019-02-27T20:26:30.596Z,24.57
2019-02-27T20:28:58.909Z,25.20
2019-02-27T20:31:29.635Z,24.50
2019-02-27T20:33:57.898Z,23.80
2019-02-27T20:36:30.281Z,29.50
2019-02-27T20:38:56.571Z,23.70
2019-02-27T20:41:24.967Z,23.03
2019-02-27T20:43:53.325Z,26.73
2019-02-27T20:49:30.945Z,23.93
2019-02-27T20:51:59.170Z,22.43
2019-02-27T20:54:27.297Z,21.60
2019-02-27T21:00:04.814Z,25.43
2019-02-27T21:02:33.257Z,25.60
2019-02-27T21:05:01.926Z,26.00
2019-02-27T21:07:30.367Z,24.57
2019-02-27T21:10:31.505Z,26.57
2019-02-27T21:12:59.901Z,24.80
2019-02-27T21:16:00.993Z,22.80
2019-02-27T21:18:32.516Z,24.50
2019-02-27T21:20:58.858Z,22.57
2019-02-27T21:23:26.936Z,25.10
2019-02-27T21:25:55.004Z,26.90
2019-02-27T21:28:23.128Z,23.73
2019-02-27T21:30:52.391Z,25.47
2019-02-27T21:33:21.045Z,25.03
2019-02-27T21:35:49.092Z,23.43
2019-02-27T21:38:17.386Z,24.83
2019-02-27T21:40:45.584Z,27.70
2019-02-27T21:43:13.670Z,27.47
2019-02-27T21:45:41.742Z,23.60
2019-02-27T21:48:09.774Z,24.70
2019-02-27T21:50:39.879Z,24.90
2019-02-27T21:53:08.913Z,26.40
2019-02-27T21:55:36.976Z,27.63
2019-02-27T21:58:05.068Z,26.93
2019-02-27T22:00:33.254Z,27.80
2019-02-27T22:03:05.019Z,21.80
2019-02-27T22:05:31.067Z,25.17
2019-02-27T22:07:59.175Z,26.00
2019-02-27T22:10:27.229Z,24.37
2019-02-27T22:12:55.281Z,27.73
2019-02-27T22:15:24.494Z,26.10
2019-02-27T22:17:52.542Z,28.37
2019-02-27T22:20:20.545Z,28.23
2019-02-27T22:22:48.601Z,25.97
2019-02-27T22:25:16.664Z,24.50
2019-02-27T22:27:46.052Z,26.53
2019-02-27T22:30:15.104Z,27.10
2019-02-27T22:32:47.582Z,22.87
2019-02-27T22:35:12.885Z,25.03
2019-02-27T22:37:40.990Z,27.67
2019-02-27T22:40:09.763Z,24.23
2019-02-27T22:42:38.045Z,25.03
2019-02-27T22:45:06.460Z,26.13
2019-02-27T22:47:34.595Z,26.07
2019-02-27T22:50:06.092Z,23.17
2019-02-27T22:52:32.426Z,26.73
2019-02-27T22:55:00.492Z,29.90
2019-02-27T22:57:28.547Z,26.37
2019-02-27T22:59:56.647Z,24.10
2019-02-27T23:02:25.077Z,26.70
2019-02-27T23:04:53.184Z,23.33
2019-02-27T23:07:21.433Z,27.37
2019-02-27T23:09:49.515Z,25.37
2019-02-27T23:12:17.681Z,23.43
2019-02-27T23:14:45.849Z,25.40
2019-02-27T23:17:13.884Z,26.30
2019-02-27T23:19:46.043Z,27.03
2019-02-27T23:22:11.679Z,31.27
2019-02-27T23:24:43.495Z,25.60
2019-02-27T23:27:09.452Z,26.60
2019-02-27T23:29:39.986Z,27.00
2019-02-27T23:32:07.171Z,26.40
2019-02-27T23:34:35.205Z,26.80
2019-02-27T23:37:03.255Z,29.67
2019-02-27T23:39:31.332Z,27.33
2019-02-27T23:41:59.297Z,27.03
2019-02-27T23:44:27.322Z,27.03
2019-02-27T23:46:57.420Z,26.33
2019-02-27T23:49:25.114Z,28.63
2019-02-27T23:51:53.212Z,30.40
2019-02-27T23:54:21.275Z,29.37
2019-02-27T23:56:51.829Z,28.77
2019-02-27T23:59:19.020Z,31.40
